Time;durP1;ratioP1;P1;durP2;ratioP2;P2;SDS_P1;SDS_P2;PMS_P1;PMS_P2;Temp;Humidity;BMP_temperature;BMP_pressure;BME280_temperature;BME280_humidity;BME280_pressure;Samples;Min_cycle;Max_cycle;Signal;HPM_P1;HPM_P2
2021/09/30 00:00:10;;;;;;;33.20;16.80;;;;;;;11.14;65.96;99602.22;113326;1195;97688;-70
2021/09/30 00:02:57;;;;;;;30.00;14.90;;;;;;;11.12;66.04;99609.35;113243;1180;113588;-71
2021/09/30 00:05:25;;;;;;;30.30;15.60;;;;;;;11.09;65.97;99611.83;113382;1195;97598;-70
2021/09/30 00:07:54;;;;;;;32.70;15.30;;;;;;;11.06;66.06;99611.48;113379;1195;107519;-70
2021/09/30 00:10:24;;;;;;;30.60;15.50;;;;;;;11.04;66.01;99613.76;113349;1195;97660;-72
2021/09/30 00:13:01;;;;;;;29.70;16.10;;;;;;;11.02;66.13;99611.52;113338;1195;97487;-70
2021/09/30 00:35:03;;;;;;;30.10;14.40;;;;;;;10.89;66.46;99607.10;113344;1195;108114;-70
2021/09/30 00:40:27;;;;;;;30.50;14.60;;;;;;;10.88;66.17;99606.95;113416;1195;95405;-69
2021/09/30 00:54:12;;;;;;;27.70;13.20;;;;;;;10.33;67.14;99598.42;113372;1195;95030;-70
2021/09/30 01:46:24;;;;;;;28.40;13.70;;;;;;;10.67;68.08;99599.08;113338;1195;108091;-69
2021/09/30 03:01:04;;;;;;;35.40;17.50;;;;;;;10.76;69.18;99615.97;113208;1195;97626;-69
2021/09/30 03:03:38;;;;;;;35.60;18.50;;;;;;;10.71;69.48;99615.70;113170;1195;111176;-71
2021/09/30 03:06:08;;;;;;;39.00;18.70;;;;;;;10.67;69.62;99615.95;113189;1195;97703;-69
2021/09/30 03:08:42;;;;;;;32.40;15.00;;;;;;;10.65;69.93;99616.41;113184;1195;107552;-69
2021/09/30 03:11:14;;;;;;;35.40;17.40;;;;;;;10.65;70.52;99613.07;113152;1195;97535;-70
2021/09/30 03:13:46;;;;;;;32.70;16.80;;;;;;;10.61;70.99;99616.18;113163;1195;95405;-69
2021/09/30 03:18:57;;;;;;;31.50;16.20;;;;;;;10.56;71.48;99619.49;113221;1195;97631;-69
2021/09/30 03:24:17;;;;;;;29.20;13.50;;;;;;;10.60;72.36;99618.38;113151;1197;98391;-69
2021/09/30 03:26:48;;;;;;;32.90;15.00;;;;;;;10.63;72.77;99617.83;113198;1195;98010;-69
2021/09/30 03:29:17;;;;;;;31.60;14.70;;;;;;;10.65;73.18;99614.27;113184;1187;111163;-69
2021/09/30 03:31:50;;;;;;;30.30;14.30;;;;;;;10.67;73.41;99613.31;113177;1195;95781;-70
2021/09/30 03:34:19;;;;;;;27.50;12.50;;;;;;;10.68;73.45;99617.30;113301;1195;107580;-70
2021/09/30 03:36:48;;;;;;;27.60;12.60;;;;;;;10.68;72.83;99621.39;113311;1195;97541;-69
2021/09/30 03:39:22;;;;;;;27.40;13.00;;;;;;;10.70;72.69;99621.27;113348;1195;97644;-70
2021/09/30 03:41:53;;;;;;;28.20;12.30;;;;;;;10.74;72.84;99619.77;113200;1195;111177;-69
2021/09/30 03:44:22;;;;;;;26.20;12.10;;;;;;;10.78;73.01;99619.17;113330;1195;96034;-69
2021/09/30 03:46:52;;;;;;;25.00;10.10;;;;;;;10.80;73.05;99617.98;113276;1197;108110;-69
2021/09/30 03:49:26;;;;;;;23.90;10.90;;;;;;;10.81;73.07;99616.27;113268;1195;95174;-70
2021/09/30 03:52:22;;;;;;;23.50;10.50;;;;;;;10.84;73.12;99621.58;113192;1195;95040;-68
2021/09/30 04:00:25;;;;;;;22.90;10.10;;;;;;;10.90;73.96;99621.23;113266;1195;110213;-68
2021/09/30 04:02:53;;;;;;;23.30;9.70;;;;;;;10.91;74.13;99620.43;113237;1195;97598;-70
2021/09/30 04:05:22;;;;;;;22.60;10.30;;;;;;;10.91;74.07;99622.21;113329;1195;97684;-70
2021/09/30 04:07:50;;;;;;;24.40;10.00;;;;;;;10.91;73.89;99625.23;113252;1195;111772;-70
2021/09/30 04:10:18;;;;;;;22.10;9.70;;;;;;;10.93;73.79;99627.08;113397;1195;97575;-70
2021/09/30 04:12:46;;;;;;;21.80;9.10;;;;;;;10.94;73.88;99631.96;112919;1196;108109;-73
2021/09/30 04:15:14;;;;;;;19.40;8.80;;;;;;;10.96;73.85;99634.16;113230;1195;97639;-71
2021/09/30 04:17:44;;;;;;;25.50;9.20;;;;;;;10.98;73.97;99633.48;113300;1195;97596;-69
2021/09/30 04:20:24;;;;;;;26.90;9.80;;;;;;;10.99;73.79;99634.48;113186;1195;111237;-70
2021/09/30 04:22:51;;;;;;;21.80;9.30;;;;;;;11.00;73.60;99637.08;113133;1195;95029;-70
2021/09/30 04:25:19;;;;;;;23.50;9.60;;;;;;;11.02;73.52;99641.53;113117;1195;108120;-70
2021/09/30 04:27:47;;;;;;;24.50;9.60;;;;;;;11.06;73.42;99646.42;113182;1195;95143;-68
2021/09/30 04:30:15;;;;;;;20.80;9.40;;;;;;;11.11;73.45;99645.05;113146;1195;97516;-69
2021/09/30 04:32:43;;;;;;;25.70;9.70;;;;;;;11.14;73.51;99647.02;113127;1195;111733;-72
2021/09/30 04:35:11;;;;;;;19.90;9.10;;;;;;;11.14;73.36;99649.65;113177;1195;95242;-69
2021/09/30 04:37:39;;;;;;;22.40;9.60;;;;;;;11.15;73.35;99651.70;113109;1195;107460;-69
2021/09/30 04:40:08;;;;;;;24.70;10.40;;;;;;;11.16;73.30;99654.31;113116;1195;97652;-71
2021/09/30 04:42:36;;;;;;;22.10;10.40;;;;;;;11.19;73.33;99654.16;113172;1195;98369;-71
2021/09/30 04:45:05;;;;;;;21.70;9.10;;;;;;;11.21;73.35;99659.16;113146;1196;109694;-71
2021/09/30 04:47:33;;;;;;;21.70;9.40;;;;;;;11.22;73.35;99658.73;113149;1195;97572;-68
2021/09/30 04:50:03;;;;;;;19.30;8.90;;;;;;;11.26;73.26;99661.15;113151;1195;107344;-70
2021/09/30 04:52:31;;;;;;;23.70;9.00;;;;;;;11.28;73.34;99659.24;113179;1195;97681;-70
2021/09/30 04:55:04;;;;;;;23.50;10.30;;;;;;;11.28;73.43;99662.73;113147;1195;97634;-69
2021/09/30 04:57:32;;;;;;;19.00;8.30;;;;;;;11.29;73.64;99660.22;113208;1195;111231;-70
2021/09/30 05:00:01;;;;;;;22.20;9.50;;;;;;;11.29;73.60;99664.12;113271;1195;97549;-71
2021/09/30 05:02:29;;;;;;;19.40;8.30;;;;;;;11.29;73.70;99664.62;113130;1195;108231;-71
2021/09/30 05:04:58;;;;;;;22.40;9.90;;;;;;;11.30;73.78;99667.06;113109;1195;97676;-70
2021/09/30 05:07:26;;;;;;;30.00;9.00;;;;;;;11.32;73.86;99669.60;113069;1195;95016;-74
2021/09/30 05:09:54;;;;;;;20.10;8.10;;;;;;;11.34;73.97;99672.16;113177;1195;111183;-75
2021/09/30 05:12:22;;;;;;;20.90;7.70;;;;;;;11.34;73.94;99672.51;113203;1195;97650;-77
2021/09/30 05:14:49;;;;;;;21.40;8.70;;;;;;;11.35;73.92;99676.51;113147;1195;107087;-73
2021/09/30 05:17:17;;;;;;;26.30;9.70;;;;;;;11.36;74.03;99677.19;113161;1195;98846;-76
2021/09/30 05:19:46;;;;;;;24.10;9.90;;;;;;;11.36;74.01;99678.25;113161;1195;95125;-76
2021/09/30 05:22:14;;;;;;;20.40;8.80;;;;;;;11.37;74.06;99682.27;113300;1195;111023;-75
2021/09/30 05:24:42;;;;;;;22.20;9.50;;;;;;;11.35;74.08;99683.79;113102;1195;97666;-75
2021/09/30 05:27:09;;;;;;;23.10;9.70;;;;;;;11.35;73.95;99688.25;113246;1195;106793;-76
2021/09/30 05:29:37;;;;;;;20.80;9.80;;;;;;;11.36;73.90;99688.20;113240;1195;97637;-74
2021/09/30 05:32:06;;;;;;;20.80;9.20;;;;;;;11.39;73.84;99691.90;113202;1195;97543;-76
2021/09/30 05:34:33;;;;;;;19.50;8.20;;;;;;;11.42;73.80;99698.05;113145;1195;111038;-76
2021/09/30 05:37:01;;;;;;;21.60;9.10;;;;;;;11.43;73.87;99700.63;114165;1194;97628;-76
2021/09/30 05:39:29;;;;;;;24.40;8.80;;;;;;;11.43;74.00;99701.17;113179;1195;107515;-75
2021/09/30 05:41:58;;;;;;;22.90;10.10;;;;;;;11.44;74.04;99701.50;113286;1195;97585;-76
2021/09/30 05:44:29;;;;;;;22.40;8.70;;;;;;;11.45;73.99;99701.44;113170;1195;97674;-75
2021/09/30 05:46:57;;;;;;;23.20;10.10;;;;;;;11.46;73.92;99706.15;113176;1195;112875;-76
2021/09/30 05:49:25;;;;;;;23.10;9.90;;;;;;;11.49;73.93;99704.73;113255;1195;97677;-76
2021/09/30 05:51:54;;;;;;;24.60;10.20;;;;;;;11.51;73.94;99704.93;113272;1196;107555;-76
2021/09/30 05:54:22;;;;;;;25.40;10.30;;;;;;;11.55;73.92;99708.27;113318;1194;97604;-75
2021/09/30 05:56:50;;;;;;;25.10;10.30;;;;;;;11.58;73.96;99708.73;113327;1195;97660;-76
2021/09/30 05:59:21;;;;;;;26.30;11.10;;;;;;;11.63;73.94;99708.77;113295;1195;111107;-76
2021/09/30 06:10:37;;;;;;;23.70;9.70;;;;;;;11.75;73.96;99731.05;113274;1194;97649;-76
2021/09/30 06:13:15;;;;;;;24.10;9.70;;;;;;;11.79;74.05;99729.94;113246;1195;111190;-76
2021/09/30 06:15:45;;;;;;;23.10;9.70;;;;;;;11.83;73.97;99735.55;113230;1195;97694;-75
2021/09/30 06:18:14;;;;;;;21.60;9.10;;;;;;;11.87;73.99;99738.58;113194;1195;107544;-79
2021/09/30 06:20:42;;;;;;;21.40;9.50;;;;;;;11.93;73.91;99741.98;113021;1195;97572;-76
2021/09/30 06:23:10;;;;;;;23.80;9.60;;;;;;;11.96;73.91;99742.16;113148;1195;97760;-76
2021/09/30 06:25:38;;;;;;;24.30;10.10;;;;;;;11.97;74.02;99743.98;113273;1195;111151;-77
2021/09/30 06:28:05;;;;;;;25.50;9.50;;;;;;;11.96;74.02;99749.02;113365;1195;96282;-76
2021/09/30 06:30:33;;;;;;;24.50;10.20;;;;;;;11.96;74.23;99753.30;113216;1195;106173;-74
2021/09/30 06:33:01;;;;;;;22.40;9.70;;;;;;;11.94;74.31;99755.91;113250;1195;97567;-76
2021/09/30 06:35:29;;;;;;;24.60;10.10;;;;;;;11.92;74.30;99756.05;113155;1195;97676;-75
2021/09/30 06:37:57;;;;;;;20.00;8.90;;;;;;;11.90;74.14;99757.57;113075;1195;111249;-76
2021/09/30 06:40:25;;;;;;;20.60;9.20;;;;;;;11.93;74.18;99759.55;113092;1195;97566;-77
2021/09/30 06:42:53;;;;;;;22.30;9.90;;;;;;;11.99;74.19;99757.60;114453;1195;107513;-76
2021/09/30 06:45:21;;;;;;;18.30;7.90;;;;;;;12.05;74.26;99760.90;112981;1195;97556;-78
2021/09/30 06:47:49;;;;;;;18.20;7.20;;;;;;;12.13;74.15;99760.04;113067;1195;97557;-75
2021/09/30 06:50:17;;;;;;;18.70;7.40;;;;;;;12.20;74.21;99763.80;113092;1195;111214;-78
2021/09/30 06:52:45;;;;;;;15.60;6.70;;;;;;;12.26;74.17;99763.22;113027;1195;97576;-76
2021/09/30 06:55:13;;;;;;;17.40;7.10;;;;;;;12.32;74.17;99765.70;113051;1195;107519;-75
2021/09/30 06:57:42;;;;;;;21.10;8.70;;;;;;;12.36;74.20;99770.73;113176;1195;97710;-74
2021/09/30 07:00:13;;;;;;;18.60;7.90;;;;;;;12.38;74.16;99773.48;112853;1195;95648;-76
2021/09/30 07:02:44;;;;;;;17.10;7.90;;;;;;;12.39;74.21;99774.97;113083;1195;110770;-75
2021/09/30 07:05:15;;;;;;;19.40;8.00;;;;;;;12.40;74.13;99774.52;113085;1195;97769;-75
2021/09/30 07:07:43;;;;;;;18.50;8.20;;;;;;;12.43;74.13;99778.61;113216;1195;107683;-76
2021/09/30 07:10:11;;;;;;;17.50;7.10;;;;;;;12.44;74.12;99781.20;113224;1195;97658;-77
2021/09/30 07:12:41;;;;;;;17.00;7.60;;;;;;;12.45;74.16;99783.23;113204;1195;97690;-78
2021/09/30 07:15:11;;;;;;;16.60;7.50;;;;;;;12.47;74.28;99789.86;113212;1195;111199;-75
2021/09/30 07:17:39;;;;;;;16.60;6.80;;;;;;;12.51;74.27;99792.64;113236;1195;97694;-75
2021/09/30 07:20:09;;;;;;;16.10;7.10;;;;;;;12.53;74.32;99794.50;113213;1195;107470;-76
2021/09/30 07:22:38;;;;;;;18.80;7.90;;;;;;;12.54;74.28;99792.60;113167;1195;97559;-73
2021/09/30 07:25:09;;;;;;;15.10;6.50;;;;;;;12.56;74.28;99794.08;113161;1195;97606;-85
2021/09/30 07:27:36;;;;;;;17.90;7.50;;;;;;;12.58;74.25;99798.06;113256;1195;110999;-76
2021/09/30 07:30:07;;;;;;;16.30;6.80;;;;;;;12.58;74.25;99803.77;113165;1195;95720;-73
2021/09/30 07:32:35;;;;;;;14.80;6.50;;;;;;;12.59;74.25;99801.33;113087;1195;105864;-75
2021/09/30 07:35:03;;;;;;;15.80;5.80;;;;;;;12.62;74.28;99805.61;113123;1195;97669;-74
2021/09/30 07:37:31;;;;;;;12.40;6.00;;;;;;;12.63;74.30;99810.33;113173;1195;97569;-75
2021/09/30 07:39:59;;;;;;;13.60;6.00;;;;;;;12.65;74.32;99810.48;113162;1195;111185;-76
2021/09/30 07:42:30;;;;;;;14.40;6.30;;;;;;;12.68;74.20;99809.46;113241;1195;97686;-74
2021/09/30 07:45:00;;;;;;;15.10;6.10;;;;;;;12.69;74.31;99815.80;113232;1195;107514;-77
2021/09/30 07:47:28;;;;;;;16.50;6.00;;;;;;;12.72;74.34;99816.48;113280;1195;97667;-77
2021/09/30 07:49:57;;;;;;;14.40;5.90;;;;;;;12.73;74.24;99818.36;113198;1195;97652;-75
2021/09/30 07:52:24;;;;;;;17.60;5.40;;;;;;;12.75;74.33;99823.94;113193;1195;111171;-75
2021/09/30 07:54:52;;;;;;;13.30;5.80;;;;;;;12.75;74.31;99825.48;113161;1195;95681;-75
2021/09/30 07:57:20;;;;;;;13.80;5.20;;;;;;;12.75;74.28;99825.30;113044;1195;107270;-75
2021/09/30 07:59:50;;;;;;;10.90;5.00;;;;;;;12.75;74.27;99829.43;113190;1195;96246;-76
2021/09/30 08:02:19;;;;;;;12.90;5.40;;;;;;;12.76;74.36;99827.25;113486;1195;95388;-74
2021/09/30 08:04:47;;;;;;;8.00;4.50;;;;;;;12.78;74.38;99826.39;113143;1195;111192;-76
2021/09/30 08:07:15;;;;;;;11.80;5.10;;;;;;;12.77;74.33;99831.39;113181;1195;97560;-75
2021/09/30 08:09:43;;;;;;;13.40;5.20;;;;;;;12.79;74.40;99835.20;113166;1195;105673;-76
2021/09/30 08:12:11;;;;;;;9.50;4.50;;;;;;;12.82;74.42;99838.91;113109;1197;95782;-77
2021/09/30 08:14:38;;;;;;;10.80;4.70;;;;;;;12.83;74.35;99837.77;113150;1195;97568;-77
2021/09/30 08:17:07;;;;;;;11.20;4.70;;;;;;;12.84;74.40;99844.66;113006;1196;111197;-76
2021/09/30 08:19:37;;;;;;;10.00;4.70;;;;;;;12.85;74.42;99844.02;113061;1196;97556;-77
2021/09/30 08:22:07;;;;;;;9.60;5.10;;;;;;;12.88;74.34;99844.92;113079;1195;107569;-78
2021/09/30 08:24:35;;;;;;;11.40;4.60;;;;;;;12.89;74.40;99845.67;113035;1196;97599;-78
2021/09/30 08:27:05;;;;;;;9.80;4.40;;;;;;;12.92;74.47;99848.36;113151;1195;95859;-77
2021/09/30 08:29:36;;;;;;;11.20;4.70;;;;;;;12.95;74.40;99848.31;113124;1195;110930;-75
2021/09/30 08:32:12;;;;;;;9.30;5.00;;;;;;;12.98;74.52;99849.04;113152;1180;97606;-77
2021/09/30 08:34:40;;;;;;;23.10;12.10;;;;;;;13.00;74.47;99853.20;113071;1196;107218;-74
2021/09/30 08:37:09;;;;;;;13.60;5.60;;;;;;;13.00;74.53;99851.58;113045;1195;97633;-79
2021/09/30 08:39:44;;;;;;;10.50;4.40;;;;;;;13.01;74.54;99856.81;113081;1195;97596;-79
2021/09/30 08:42:12;;;;;;;11.60;4.60;;;;;;;13.04;74.56;99855.16;113101;1195;111788;-75
2021/09/30 08:44:43;;;;;;;11.70;5.30;;;;;;;13.07;74.65;99855.83;113137;1195;97679;-74
2021/09/30 08:47:14;;;;;;;9.90;5.10;;;;;;;13.12;74.65;99856.79;113037;1195;106901;-75
2021/09/30 08:49:43;;;;;;;8.90;4.20;;;;;;;13.17;74.65;99856.81;113038;1196;98223;-76
2021/09/30 08:52:12;;;;;;;8.70;4.30;;;;;;;13.20;74.57;99856.58;113093;1196;97570;-76
2021/09/30 08:54:41;;;;;;;9.90;4.50;;;;;;;13.23;74.67;99859.05;113079;1196;111598;-77
2021/09/30 08:57:09;;;;;;;6.80;3.60;;;;;;;13.25;74.54;99859.25;113293;1195;97642;-77
2021/09/30 08:59:39;;;;;;;9.30;3.80;;;;;;;13.25;74.52;99862.06;113144;1196;108001;-79
2021/09/30 09:02:17;;;;;;;8.20;3.90;;;;;;;13.27;74.62;99862.83;112988;1196;97593;-78
2021/09/30 09:04:57;;;;;;;8.90;4.70;;;;;;;13.27;74.62;99863.75;113289;1195;97534;-77
2021/09/30 09:07:31;;;;;;;8.90;4.20;;;;;;;13.28;74.60;99865.42;112745;1197;112139;-80
2021/09/30 09:10:05;;;;;;;9.60;4.30;;;;;;;13.29;74.65;99866.77;113060;1197;97628;-76
2021/09/30 09:12:33;;;;;;;;;;;;;;;13.30;74.62;99866.89;113121;1195;107567;-75
2021/09/30 09:15:03;;;;;;;9.20;3.80;;;;;;;13.29;74.70;99870.72;112999;1195;98252;-76
2021/09/30 09:17:32;;;;;;;7.90;3.90;;;;;;;13.30;74.71;99871.21;113178;1195;97665;-76
2021/09/30 09:20:03;;;;;;;10.40;4.60;;;;;;;13.30;74.68;99873.52;113187;1195;112686;-75
2021/09/30 09:22:34;;;;;;;8.30;4.50;;;;;;;13.30;74.74;99873.30;113157;1195;97564;-74
2021/09/30 09:25:03;;;;;;;6.80;3.80;;;;;;;13.32;74.75;99877.05;113095;1195;107580;-76
2021/09/30 09:27:55;;;;;;;9.00;4.20;;;;;;;13.34;74.79;99876.61;113077;1195;97557;-78
2021/09/30 09:30:32;;;;;;;8.30;4.00;;;;;;;13.35;74.73;99875.41;113085;1195;95464;-75
2021/09/30 09:33:11;;;;;;;8.60;4.10;;;;;;;13.38;74.69;99874.71;113131;1195;111134;-77
2021/09/30 09:36:09;;;;;;;7.50;3.50;;;;;;;13.41;74.84;99878.42;113166;1196;97586;-77
2021/09/30 09:38:51;;;;;;;7.20;3.80;;;;;;;13.46;74.77;99869.92;113083;1195;107473;-75
2021/09/30 09:41:31;;;;;;;8.30;4.00;;;;;;;13.47;74.80;99873.00;113100;1195;97665;-76
2021/09/30 09:44:04;;;;;;;6.40;3.40;;;;;;;13.50;74.80;99879.06;113102;1195;97671;-75
2021/09/30 09:46:35;;;;;;;5.80;3.20;;;;;;;13.50;74.75;99882.61;113155;1195;111224;-74
2021/09/30 09:49:14;;;;;;;5.60;3.30;;;;;;;13.52;74.75;99884.09;113141;1195;97589;-75
2021/09/30 09:51:47;;;;;;;9.10;3.40;;;;;;;13.55;74.87;99884.02;113012;1195;107386;-78
2021/09/30 09:54:22;;;;;;;8.30;3.80;;;;;;;13.59;74.92;99884.82;113081;1197;97660;-74
2021/09/30 09:56:51;;;;;;;5.30;2.80;;;;;;;13.65;74.95;99889.58;113081;1196;97561;-76
2021/09/30 09:59:40;;;;;;;5.10;3.00;;;;;;;13.68;74.82;99888.96;113086;1195;111228;-77
2021/09/30 10:02:31;;;;;;;5.20;3.10;;;;;;;13.69;74.90;99891.05;113128;1195;97856;-78
2021/09/30 10:05:05;;;;;;;14.90;6.30;;;;;;;13.72;74.89;99897.63;113171;1195;107576;-76
2021/09/30 10:07:35;;;;;;;7.20;3.80;;;;;;;13.76;74.92;99900.70;113185;1195;98379;-76
2021/09/30 10:10:04;;;;;;;8.50;3.40;;;;;;;13.81;74.95;99899.81;113216;1195;98355;-77
2021/09/30 10:12:32;;;;;;;6.00;3.50;;;;;;;13.86;74.87;99899.45;113141;1195;111218;-76
2021/09/30 10:15:03;;;;;;;9.50;3.90;;;;;;;13.89;75.00;99899.77;113163;1195;95383;-77
2021/09/30 10:17:31;;;;;;;9.60;4.10;;;;;;;13.94;75.02;99904.39;113132;1195;107750;-76
2021/09/30 10:20:03;;;;;;;8.00;4.20;;;;;;;13.99;74.94;99907.80;113052;1195;97639;-76
2021/09/30 10:22:31;;;;;;;9.30;4.30;;;;;;;14.02;74.88;99907.02;113006;1197;95510;-77
2021/09/30 10:24:59;;;;;;;10.70;4.80;;;;;;;14.04;74.92;99908.65;113116;1195;111134;-77
2021/09/30 10:27:32;;;;;;;9.60;4.20;;;;;;;14.07;74.88;99906.84;113110;1195;97543;-75
2021/09/30 10:30:00;;;;;;;8.60;4.10;;;;;;;14.10;74.86;99908.75;113103;1195;107473;-76
2021/09/30 10:32:29;;;;;;;10.10;4.70;;;;;;;14.12;74.92;99911.43;113155;1195;97751;-75
2021/09/30 10:35:07;;;;;;;11.10;4.90;;;;;;;14.13;75.01;99911.56;113102;1196;96482;-76
2021/09/30 10:37:38;;;;;;;9.40;4.90;;;;;;;14.14;74.83;99909.35;113136;1196;111146;-78
2021/09/30 10:40:23;;;;;;;9.50;4.40;;;;;;;14.15;74.90;99910.55;112719;1197;97696;-76
2021/09/30 10:42:58;;;;;;;12.10;4.90;;;;;;;14.17;75.00;99907.74;112978;1196;105872;-76
2021/09/30 10:45:38;;;;;;;12.20;5.10;;;;;;;14.18;74.98;99911.06;112829;1197;98157;-77
2021/09/30 10:48:27;;;;;;;11.40;5.80;;;;;;;14.18;74.96;99908.57;113050;1196;97659;-77
2021/09/30 10:51:01;;;;;;;9.20;5.00;;;;;;;14.18;74.95;99913.73;112696;1197;111732;-76
2021/09/30 10:53:47;;;;;;;11.70;5.40;;;;;;;14.17;74.94;99915.89;113051;1196;98249;-76
2021/09/30 10:56:24;;;;;;;9.60;4.70;;;;;;;14.18;75.08;99916.09;112620;1198;107187;-75
2021/09/30 10:59:21;;;;;;;9.20;4.50;;;;;;;14.17;74.97;99918.41;112966;1196;97669;-76
2021/09/30 11:01:52;;;;;;;9.60;5.00;;;;;;;14.16;75.00;99922.05;112718;1198;97817;-77
2021/09/30 11:04:25;;;;;;;10.70;4.90;;;;;;;14.15;75.00;99920.16;113091;1197;111197;-80
2021/09/30 11:07:17;;;;;;;10.30;4.90;;;;;;;14.14;74.96;99920.59;113037;1195;97572;-79
2021/09/30 11:10:31;;;;;;;9.80;4.70;;;;;;;14.12;74.96;99917.86;112794;1197;107554;-75
2021/09/30 11:13:22;;;;;;;10.40;5.20;;;;;;;14.12;75.02;99914.48;112970;1195;97660;-74
2021/09/30 11:15:59;;;;;;;11.80;5.60;;;;;;;14.13;74.96;99915.48;112968;1195;95141;-74
2021/09/30 11:18:40;;;;;;;14.00;6.10;;;;;;;14.13;74.98;99915.67;112998;1195;111181;-74
2021/09/30 11:21:31;;;;;;;13.30;6.20;;;;;;;14.11;75.02;99916.13;112950;1195;97660;-75
2021/09/30 11:24:18;;;;;;;14.70;6.40;;;;;;;14.11;75.02;99919.38;113047;1195;107523;-76
2021/09/30 11:26:49;;;;;;;14.80;6.20;;;;;;;14.11;75.05;99920.47;113100;1195;96193;-77
2021/09/30 11:29:28;;;;;;;13.10;6.30;;;;;;;14.11;75.06;99920.98;113070;1195;96896;-77
2021/09/30 11:31:56;;;;;;;14.00;6.40;;;;;;;14.10;74.98;99919.61;113110;1195;111846;-76
2021/09/30 11:34:41;;;;;;;16.20;6.40;;;;;;;14.07;74.96;99925.59;113141;1195;97659;-74
2021/09/30 11:37:17;;;;;;;15.20;6.50;;;;;;;14.05;74.95;99921.80;113155;1195;106601;-74
2021/09/30 11:39:51;;;;;;;13.90;6.50;;;;;;;14.02;74.99;99923.23;112983;1195;97538;-78
2021/09/30 11:42:20;;;;;;;;;;;;;;;14.00;75.05;99922.52;113361;1195;97781;-75
2021/09/30 11:45:21;;;;;;;16.20;6.80;;;;;;;13.96;75.12;99922.07;113084;1195;110969;-78
2021/09/30 11:48:03;;;;;;;16.60;7.00;;;;;;;13.98;75.19;99922.48;113022;1197;97533;-79
2021/09/30 11:50:35;;;;;;;15.30;7.30;;;;;;;13.99;75.16;99920.63;112986;1196;107628;-76
2021/09/30 11:53:10;;;;;;;18.50;8.70;;;;;;;13.99;75.17;99923.28;113107;1195;95774;-76
2021/09/30 11:55:42;;;;;;;20.10;10.80;;;;;;;14.00;75.22;99923.58;113112;1195;97561;-75
2021/09/30 11:58:13;;;;;;;23.50;13.00;;;;;;;13.98;75.08;99925.88;112816;1196;111288;-76
2021/09/30 12:00:44;;;;;;;24.30;13.60;;;;;;;13.94;75.14;99926.00;112929;1196;97561;-76
2021/09/30 12:03:21;;;;;;;27.00;14.10;;;;;;;13.92;75.15;99929.54;112907;1196;107566;-76
2021/09/30 12:05:54;;;;;;;25.90;14.30;;;;;;;13.88;75.09;99931.59;113135;1196;97553;-76
2021/09/30 12:08:22;;;;;;;;;;;;;;;13.82;75.13;99929.46;113122;1196;95159;-75
2021/09/30 12:11:00;;;;;;;27.10;15.90;;;;;;;13.77;75.24;99930.20;113075;1196;111516;-74
2021/09/30 12:13:28;;;;;;;28.80;16.50;;;;;;;13.77;75.19;99933.95;113077;1196;97520;-75
2021/09/30 12:16:03;;;;;;;29.20;16.70;;;;;;;13.79;75.25;99939.39;113011;1195;107517;-76
2021/09/30 12:18:31;;;;;;;29.70;17.90;;;;;;;13.80;75.24;99936.77;113046;1195;97656;-76
2021/09/30 12:20:59;;;;;;;29.80;17.50;;;;;;;13.83;75.33;99940.13;113103;1195;97548;-78
2021/09/30 12:23:29;;;;;;;30.10;18.80;;;;;;;13.85;75.25;99941.79;113037;1195;111186;-77
2021/09/30 12:26:01;;;;;;;31.40;18.90;;;;;;;13.86;75.24;99944.02;113025;1196;97608;-79
2021/09/30 12:28:32;;;;;;;31.70;18.40;;;;;;;13.87;75.34;99945.41;112982;1196;106006;-75
2021/09/30 12:31:14;;;;;;;27.40;16.90;;;;;;;13.89;75.31;99946.50;113072;1195;97604;-75
2021/09/30 12:33:42;;;;;;;31.10;18.40;;;;;;;13.90;75.39;99946.05;112974;1195;97044;-76
2021/09/30 12:36:17;;;;;;;34.10;19.50;;;;;;;13.92;75.36;99945.34;112902;1195;111156;-76
2021/09/30 12:38:57;;;;;;;32.80;19.20;;;;;;;13.93;75.36;99941.75;113049;1197;97689;-75
2021/09/30 12:41:27;;;;;;;35.00;19.90;;;;;;;13.94;75.32;99944.88;112956;1196;107401;-75
2021/09/30 12:44:11;;;;;;;31.40;18.70;;;;;;;13.93;75.35;99944.41;113045;1196;97575;-74
2021/09/30 12:46:45;;;;;;;30.60;18.10;;;;;;;13.92;75.33;99944.83;113038;1195;97576;-75
2021/09/30 12:49:14;;;;;;;29.80;16.70;;;;;;;13.90;75.31;99946.25;112960;1195;111218;-75
2021/09/30 12:51:44;;;;;;;28.40;16.10;;;;;;;13.88;75.27;99949.39;113016;1195;95708;-75
2021/09/30 12:54:24;;;;;;;27.70;15.60;;;;;;;13.85;75.33;99951.24;113120;1196;107546;-78
2021/09/30 12:56:53;;;;;;;26.90;15.70;;;;;;;13.85;75.39;99952.49;112877;1201;97623;-78
2021/09/30 12:59:21;;;;;;;21.50;11.70;;;;;;;13.80;75.30;99946.03;114882;1195;95592;-78
2021/09/30 13:01:48;;;;;;;21.70;11.50;;;;;;;13.74;75.29;99944.00;114363;1195;111171;-77
2021/09/30 13:04:23;;;;;;;22.60;12.70;;;;;;;13.68;75.29;99947.60;112980;1196;97707;-77
2021/09/30 13:07:00;;;;;;;22.40;12.60;;;;;;;13.66;75.27;99948.46;113428;1196;107523;-75
2021/09/30 13:09:33;;;;;;;24.30;12.10;;;;;;;13.66;75.36;99947.59;113239;1195;97774;-75
2021/09/30 13:12:11;;;;;;;22.10;12.30;;;;;;;13.65;75.34;99948.52;113289;1195;95740;-75
2021/09/30 13:14:54;;;;;;;22.90;12.20;;;;;;;13.66;75.46;99950.43;113140;1195;111261;-76
2021/09/30 13:17:27;;;;;;;23.60;12.70;;;;;;;13.68;75.43;99949.04;113017;1195;97495;-74
2021/09/30 13:20:06;;;;;;;22.00;11.60;;;;;;;13.71;75.55;99949.19;112788;1196;107637;-76
2021/09/30 13:22:39;;;;;;;22.10;11.80;;;;;;;13.72;75.46;99954.98;113170;1187;97758;-74
2021/09/30 13:25:10;;;;;;;21.70;11.70;;;;;;;13.73;75.47;99955.13;113096;1195;97599;-75
2021/09/30 13:27:42;;;;;;;20.40;10.10;;;;;;;13.71;75.38;99961.11;113093;1196;110759;-78
2021/09/30 13:30:14;;;;;;;21.40;11.20;;;;;;;13.71;75.42;99960.43;113115;1196;97572;-76
2021/09/30 13:32:45;;;;;;;22.00;10.70;;;;;;;13.69;75.48;99962.85;113230;1197;109060;-74
2021/09/30 13:35:15;;;;;;;20.50;10.10;;;;;;;13.67;75.48;99962.28;113188;1196;97613;-75
2021/09/30 13:37:45;;;;;;;20.50;10.30;;;;;;;13.65;75.33;99958.52;113312;1194;97561;-75
2021/09/30 13:40:13;;;;;;;21.50;10.80;;;;;;;13.64;75.52;99957.86;113129;1196;110750;-76
2021/09/30 13:42:41;;;;;;;21.50;10.40;;;;;;;13.63;75.54;99959.75;113222;1195;97569;-75
2021/09/30 13:45:14;;;;;;;20.30;10.10;;;;;;;13.62;75.52;99959.67;113238;1195;107541;-74
2021/09/30 13:47:43;;;;;;;21.80;11.40;;;;;;;13.61;75.51;99960.27;113139;1195;95844;-74
2021/09/30 13:50:16;;;;;;;25.60;14.70;;;;;;;13.61;75.58;99958.84;113254;1196;97694;-76
2021/09/30 13:52:46;;;;;;;24.40;14.10;;;;;;;13.60;75.55;99959.41;113219;1196;111316;-75
2021/09/30 13:55:15;;;;;;;27.00;15.00;;;;;;;13.58;75.55;99957.60;113217;1195;97493;-77
2021/09/30 13:57:45;;;;;;;24.10;13.50;;;;;;;13.57;75.61;99958.53;113110;1196;107538;-78
2021/09/30 14:00:16;;;;;;;24.10;13.20;;;;;;;13.57;75.60;99960.02;113184;1196;97546;-77
2021/09/30 14:02:47;;;;;;;23.50;12.30;;;;;;;13.57;75.55;99959.65;113173;1195;95029;-76
2021/09/30 14:05:18;;;;;;;23.70;12.60;;;;;;;13.57;75.65;99955.38;113145;1196;110878;-80
2021/09/30 14:07:47;;;;;;;26.60;16.00;;;;;;;13.58;75.65;99956.33;113081;1195;97657;-79
2021/09/30 14:10:19;;;;;;;26.80;14.20;;;;;;;13.59;75.61;99953.95;113126;1197;107358;-78
2021/09/30 14:12:49;;;;;;;25.60;15.00;;;;;;;13.61;75.72;99956.70;113054;1196;97541;-79
2021/09/30 14:15:18;;;;;;;29.10;15.60;;;;;;;13.64;75.76;99955.80;113063;1196;97814;-77
2021/09/30 14:17:47;;;;;;;27.30;15.00;;;;;;;13.66;75.80;99954.54;113091;1196;111071;-77
2021/09/30 14:20:14;;;;;;;26.20;15.50;;;;;;;13.66;75.69;99954.86;113125;1187;97513;-80
2021/09/30 14:22:42;;;;;;;27.60;16.00;;;;;;;13.67;75.76;99956.79;113159;1195;107550;-79
2021/09/30 14:25:15;;;;;;;25.00;14.20;;;;;;;13.67;75.72;99958.20;113098;1195;96091;-80
2021/09/30 14:27:47;;;;;;;22.90;13.20;;;;;;;13.66;75.64;99958.48;113214;1195;97627;-78
2021/09/30 14:30:14;;;;;;;23.20;13.50;;;;;;;13.64;75.70;99958.27;113297;1196;111136;-78